Time;durP1;ratioP1;P1;durP2;ratioP2;P2;SDS_P1;SDS_P2;PMS_P1;PMS_P2;Temp;Humidity;BMP_temperature;BMP_pressure;BME280_temperature;BME280_humidity;BME280_pressure;Samples;Min_cycle;Max_cycle;Signal;HPM_P1;HPM_P2
2022/01/29 00:01:39;;;;;;;18.75;4.20;;;7.20;91.80;;;;;;5051322;28;20053;-64
2022/01/29 00:04:05;;;;;;;15.43;4.20;;;7.20;91.80;;;;;;5070061;28;20028;-63
2022/01/29 00:06:30;;;;;;;19.52;4.40;;;7.30;91.80;;;;;;5044005;28;20025;-64
2022/01/29 00:08:57;;;;;;;17.35;4.07;;;7.20;91.70;;;;;;5053290;28;20027;-63
2022/01/29 00:11:28;;;;;;;12.90;3.40;;;7.20;91.80;;;;;;5070433;28;20383;-64
2022/01/29 00:13:54;;;;;;;16.90;4.28;;;7.30;91.80;;;;;;5064157;28;20431;-63
2022/01/29 00:16:19;;;;;;;14.32;3.50;;;7.20;91.80;;;;;;5059865;28;20036;-63
2022/01/29 00:18:44;;;;;;;13.80;4.10;;;7.20;91.80;;;;;;5059512;28;20475;-63
2022/01/29 00:21:10;;;;;;;17.88;3.65;;;7.20;91.80;;;;;;5052189;28;20104;-63
2022/01/29 00:23:36;;;;;;;12.60;3.67;;;7.20;91.90;;;;;;5071307;28;20501;-63
2022/01/29 00:26:01;;;;;;;17.35;3.63;;;7.20;91.80;;;;;;5051291;28;20116;-64
2022/01/29 00:28:27;;;;;;;15.93;3.55;;;7.20;91.80;;;;;;5058226;28;20055;-64
2022/01/29 00:30:53;;;;;;;11.88;3.55;;;7.20;91.80;;;;;;5051451;28;20025;-63
2022/01/29 00:33:18;;;;;;;14.70;5.13;;;7.20;91.80;;;;;;5055023;28;20090;-64
2022/01/29 00:35:44;;;;;;;14.60;3.50;;;7.10;91.80;;;;;;5051741;28;20400;-64
2022/01/29 00:38:09;;;;;;;16.85;3.97;;;7.20;91.90;;;;;;5069622;28;20108;-63
2022/01/29 00:40:36;;;;;;;15.73;3.58;;;7.10;91.80;;;;;;5071030;28;20048;-63
2022/01/29 00:43:05;;;;;;;15.75;3.20;;;7.10;91.90;;;;;;5065716;28;20020;-64
2022/01/29 00:45:32;;;;;;;13.52;4.13;;;7.10;91.90;;;;;;5051057;28;20120;-63
2022/01/29 00:47:58;;;;;;;13.00;3.30;;;7.10;91.90;;;;;;5063740;28;20029;-63
2022/01/29 00:50:23;;;;;;;19.30;4.13;;;7.10;92.00;;;;;;5051609;28;20116;-63
2022/01/29 00:52:49;;;;;;;11.93;3.05;;;7.10;92.00;;;;;;5062843;28;20376;-63
2022/01/29 00:55:14;;;;;;;16.52;3.38;;;7.10;91.90;;;;;;5050834;28;20020;-63
2022/01/29 00:57:40;;;;;;;13.90;3.25;;;7.10;91.90;;;;;;5062346;28;20032;-63
2022/01/29 01:00:12;;;;;;;13.90;3.05;;;7.10;92.00;;;;;;5032896;28;20052;-62
2022/01/29 01:02:38;;;;;;;13.57;3.50;;;7.10;92.00;;;;;;5055041;28;20028;-63
2022/01/29 01:05:04;;;;;;;8.60;4.00;;;7.10;92.00;;;;;;5069668;28;20115;-63
2022/01/29 01:07:30;;;;;;;14.43;3.78;;;7.10;92.00;;;;;;5060082;28;20032;-63
2022/01/29 01:09:56;;;;;;;21.10;3.60;;;7.10;92.00;;;;;;5051243;28;20037;-63
2022/01/29 01:12:22;;;;;;;13.68;3.20;;;7.10;92.00;;;;;;5050057;28;20404;-62
2022/01/29 01:14:48;;;;;;;12.35;2.88;;;7.10;92.00;;;;;;5050908;28;20053;-63
2022/01/29 01:17:13;;;;;;;14.95;3.72;;;7.10;92.00;;;;;;5063412;28;20032;-63
2022/01/29 01:19:39;;;;;;;19.00;4.28;;;7.10;92.00;;;;;;5072246;28;20034;-63
2022/01/29 01:22:05;;;;;;;11.52;3.65;;;7.10;92.00;;;;;;5071189;28;20150;-62
2022/01/29 01:24:30;;;;;;;18.27;4.20;;;7.10;92.00;;;;;;5074805;28;20480;-63
2022/01/29 01:26:56;;;;;;;19.55;4.05;;;7.10;92.00;;;;;;5069545;28;20113;-63
2022/01/29 01:29:21;;;;;;;11.55;3.72;;;7.10;92.00;;;;;;5058380;28;20028;-63
2022/01/29 01:31:47;;;;;;;15.77;3.58;;;7.10;92.10;;;;;;5073663;28;20105;-63
2022/01/29 01:34:14;;;;;;;14.15;4.03;;;7.10;92.00;;;;;;5073359;28;20040;-63
2022/01/29 01:36:47;;;;;;;19.08;3.63;;;7.10;92.10;;;;;;5066634;28;20154;-63
2022/01/29 01:39:16;;;;;;;16.98;5.10;;;7.10;92.10;;;;;;5071692;28;20032;-64
2022/01/29 01:41:51;;;;;;;16.48;3.85;;;7.10;92.10;;;;;;5072414;28;20028;-63
2022/01/29 01:44:17;;;;;;;11.85;3.15;;;7.10;92.10;;;;;;5051124;28;20029;-63
2022/01/29 01:46:43;;;;;;;16.13;4.30;;;7.10;92.10;;;;;;5056395;28;20447;-63
2022/01/29 01:49:09;;;;;;;8.23;3.38;;;7.10;92.10;;;;;;5054627;28;20105;-63
2022/01/29 01:51:34;;;;;;;22.27;4.32;;;7.10;92.10;;;;;;5057904;28;20029;-64
2022/01/29 01:54:00;;;;;;;11.52;3.28;;;7.00;92.10;;;;;;5053739;28;20047;-64
2022/01/29 01:56:25;;;;;;;14.45;4.75;;;7.00;92.10;;;;;;5057482;28;20036;-63
2022/01/29 01:58:51;;;;;;;11.10;3.05;;;7.10;92.10;;;;;;5055002;28;20078;-63
2022/01/29 02:01:16;;;;;;;18.20;4.32;;;7.00;92.10;;;;;;5055874;28;22081;-64
2022/01/29 02:03:44;;;;;;;17.38;3.90;;;7.10;92.10;;;;;;5073126;28;20017;-63
2022/01/29 02:06:10;;;;;;;12.85;3.03;;;7.00;92.20;;;;;;5072273;28;20025;-63
2022/01/29 02:08:35;;;;;;;13.90;3.25;;;7.00;92.20;;;;;;5073760;28;20035;-63
2022/01/29 02:11:05;;;;;;;15.55;3.65;;;7.00;92.20;;;;;;5060801;28;20025;-63
2022/01/29 02:13:31;;;;;;;13.90;3.35;;;7.00;92.30;;;;;;5057118;28;20025;-64
2022/01/29 02:15:57;;;;;;;12.38;3.55;;;7.00;92.30;;;;;;5072517;28;20505;-64
2022/01/29 02:18:23;;;;;;;10.52;3.30;;;7.00;92.30;;;;;;5073214;28;20108;-63
2022/01/29 02:20:49;;;;;;;14.07;3.72;;;7.00;92.40;;;;;;5070638;28;20111;-63
2022/01/29 02:23:17;;;;;;;18.10;4.47;;;7.00;92.40;;;;;;5054312;28;20541;-63
2022/01/29 02:25:47;;;;;;;13.00;3.80;;;7.00;92.40;;;;;;5053795;28;20037;-63
2022/01/29 02:28:21;;;;;;;13.73;3.78;;;7.00;92.30;;;;;;5053506;28;20032;-63
2022/01/29 02:30:50;;;;;;;16.27;3.67;;;7.00;92.30;;;;;;5057226;28;20036;-63
2022/01/29 02:33:17;;;;;;;15.32;3.75;;;7.10;92.40;;;;;;5054082;28;20107;-63
2022/01/29 02:35:48;;;;;;;11.10;3.60;;;7.00;92.50;;;;;;5068216;28;20791;-63
2022/01/29 02:38:15;;;;;;;15.20;3.55;;;7.10;92.60;;;;;;5069945;28;20032;-63
2022/01/29 02:40:49;;;;;;;19.70;3.50;;;7.00;92.60;;;;;;5073273;28;20034;-64
2022/01/29 02:43:22;;;;;;;13.98;3.70;;;7.10;92.70;;;;;;5072037;28;20533;-63
2022/01/29 02:45:50;;;;;;;15.25;4.43;;;7.10;92.70;;;;;;5070225;28;20036;-64
2022/01/29 02:48:16;;;;;;;18.48;3.53;;;7.00;92.90;;;;;;5070946;28;20550;-64
2022/01/29 02:50:42;;;;;;;18.30;4.25;;;7.10;92.70;;;;;;5071698;28;20104;-64
2022/01/29 02:53:07;;;;;;;14.02;3.88;;;7.10;92.80;;;;;;5071309;28;20028;-64
2022/01/29 02:55:33;;;;;;;12.55;3.58;;;7.10;92.90;;;;;;5066994;28;20502;-64
2022/01/29 02:58:00;;;;;;;14.00;3.83;;;7.10;92.90;;;;;;5053726;28;20535;-64
2022/01/29 03:00:26;;;;;;;12.90;3.63;;;7.00;93.10;;;;;;5053666;28;20538;-64
2022/01/29 03:02:52;;;;;;;11.95;3.25;;;7.10;93.10;;;;;;5053088;28;20380;-64
2022/01/29 03:05:18;;;;;;;13.43;3.90;;;7.00;93.20;;;;;;5035801;28;20039;-64
2022/01/29 03:07:43;;;;;;;8.77;3.58;;;7.00;93.40;;;;;;5053095;28;20031;-64
2022/01/29 03:10:09;;;;;;;13.43;4.57;;;7.00;93.50;;;;;;5061838;28;20518;-64
2022/01/29 03:12:37;;;;;;;15.00;3.80;;;7.00;93.60;;;;;;5052805;28;20056;-64
2022/01/29 03:15:07;;;;;;;14.40;3.55;;;7.00;93.60;;;;;;5063616;28;20430;-64
2022/01/29 03:17:32;;;;;;;12.43;3.47;;;6.90;93.80;;;;;;5062289;28;20043;-65
2022/01/29 03:19:58;;;;;;;14.63;3.42;;;6.90;93.80;;;;;;5053323;28;20025;-64
2022/01/29 03:22:23;;;;;;;12.23;3.83;;;6.90;93.90;;;;;;5053138;28;20025;-64
2022/01/29 03:24:49;;;;;;;13.60;3.88;;;6.90;93.90;;;;;;5054107;28;20029;-64
2022/01/29 03:27:14;;;;;;;15.93;5.30;;;6.90;93.90;;;;;;5070767;28;20043;-64
2022/01/29 03:29:40;;;;;;;13.73;3.90;;;6.90;94.00;;;;;;5071044;28;20024;-64
2022/01/29 03:32:06;;;;;;;14.48;4.68;;;6.90;94.10;;;;;;5055987;28;20151;-63
2022/01/29 03:34:31;;;;;;;15.65;4.10;;;6.90;94.10;;;;;;5052388;28;20021;-64
2022/01/29 03:36:58;;;;;;;13.05;3.88;;;6.90;94.20;;;;;;5071025;28;20043;-64
2022/01/29 03:39:27;;;;;;;14.10;4.45;;;6.90;94.30;;;;;;5054259;28;20086;-64
2022/01/29 03:41:53;;;;;;;12.85;3.88;;;6.90;94.30;;;;;;5069066;28;20033;-64
2022/01/29 03:44:19;;;;;;;11.57;3.50;;;6.80;94.40;;;;;;5072078;28;20441;-64
2022/01/29 03:46:45;;;;;;;10.90;3.70;;;6.80;94.50;;;;;;5067254;28;20103;-64
2022/01/29 03:49:11;;;;;;;13.40;3.97;;;6.80;94.50;;;;;;5051894;28;20074;-64
2022/01/29 03:51:36;;;;;;;11.30;4.72;;;6.80;94.60;;;;;;5053457;28;20029;-64
2022/01/29 03:54:02;;;;;;;13.80;4.03;;;6.80;94.60;;;;;;5065966;28;20032;-62
2022/01/29 03:56:27;;;;;;;18.55;4.53;;;6.90;94.70;;;;;;5070932;28;20525;-64
2022/01/29 03:58:53;;;;;;;18.67;4.43;;;6.80;94.80;;;;;;5063585;28;20032;-64
2022/01/29 04:01:18;;;;;;;15.23;4.60;;;6.80;94.90;;;;;;5070353;28;20048;-64
2022/01/29 04:03:44;;;;;;;19.33;4.72;;;6.80;95.00;;;;;;5061547;28;20033;-64
2022/01/29 04:06:09;;;;;;;15.98;4.40;;;6.80;95.00;;;;;;5063192;28;20445;-64
2022/01/29 04:08:40;;;;;;;12.98;4.68;;;6.80;95.10;;;;;;5071420;28;20029;-64
2022/01/29 04:11:08;;;;;;;14.32;4.47;;;6.80;95.10;;;;;;5069888;28;20028;-64
2022/01/29 04:13:33;;;;;;;12.05;4.57;;;6.80;95.20;;;;;;5070487;28;20069;-64
2022/01/29 04:15:59;;;;;;;11.63;4.78;;;6.80;95.20;;;;;;5064131;28;20475;-64
2022/01/29 04:18:24;;;;;;;16.35;5.25;;;6.80;95.30;;;;;;5071775;28;20024;-64
2022/01/29 04:20:50;;;;;;;19.38;5.93;;;6.80;95.60;;;;;;5064486;28;20028;-64
2022/01/29 04:23:15;;;;;;;13.10;4.82;;;6.70;95.40;;;;;;5055114;28;20614;-64
2022/01/29 04:25:41;;;;;;;12.25;4.55;;;6.70;95.40;;;;;;5059450;28;20052;-64
2022/01/29 04:28:09;;;;;;;15.50;5.22;;;6.70;95.50;;;;;;5071133;28;20017;-64
2022/01/29 04:30:44;;;;;;;16.90;5.55;;;6.80;95.60;;;;;;5060371;28;20371;-64
2022/01/29 04:33:28;;;;;;;14.43;6.00;;;6.80;95.60;;;;;;5071523;28;20024;-64
2022/01/29 04:36:03;;;;;;;17.67;5.83;;;6.80;95.70;;;;;;5055555;28;20049;-64
2022/01/29 04:38:30;;;;;;;17.25;5.70;;;6.80;95.70;;;;;;5051556;28;20484;-63
2022/01/29 04:40:57;;;;;;;16.17;5.38;;;6.80;95.70;;;;;;5059855;28;20033;-63
2022/01/29 04:43:24;;;;;;;20.60;6.03;;;6.80;95.80;;;;;;5068270;28;20032;-64
2022/01/29 04:45:49;;;;;;;11.15;5.00;;;6.80;95.80;;;;;;5059739;28;20029;-64
2022/01/29 04:48:15;;;;;;;22.75;6.07;;;6.80;95.90;;;;;;5051082;28;20028;-63
2022/01/29 04:50:42;;;;;;;16.40;6.15;;;6.70;95.90;;;;;;5060849;28;20491;-63
2022/01/29 04:53:08;;;;;;;12.20;5.80;;;6.80;96.00;;;;;;5052320;28;20021;-63
2022/01/29 04:55:33;;;;;;;24.40;7.05;;;6.80;96.10;;;;;;5063512;28;20027;-63
2022/01/29 04:57:59;;;;;;;19.92;6.18;;;6.80;96.10;;;;;;5069883;28;20115;-63
2022/01/29 05:00:24;;;;;;;15.43;6.03;;;6.80;96.10;;;;;;5067963;28;20120;-63
2022/01/29 05:02:53;;;;;;;14.50;5.55;;;6.80;96.20;;;;;;5059803;28;20037;-64
2022/01/29 05:05:19;;;;;;;17.90;6.40;;;6.80;96.30;;;;;;5059982;28;20036;-63
2022/01/29 05:07:45;;;;;;;13.15;5.78;;;6.80;96.30;;;;;;5050648;28;20024;-63
2022/01/29 05:10:11;;;;;;;16.08;5.53;;;6.80;96.40;;;;;;5060532;28;20033;-63
2022/01/29 05:12:52;;;;;;;20.95;7.22;;;6.80;96.30;;;;;;5058404;28;20081;-63
2022/01/29 05:29:00;;;;;;;13.57;5.63;;;6.80;96.50;;;;;;5050754;28;20025;-63
2022/01/29 05:31:25;;;;;;;16.58;5.28;;;6.80;96.50;;;;;;5065290;28;20028;-63
2022/01/29 05:33:51;;;;;;;20.10;6.55;;;6.80;96.60;;;;;;5066982;28;20035;-63
2022/01/29 05:36:16;;;;;;;15.23;5.95;;;6.80;96.70;;;;;;5056422;28;20377;-63
2022/01/29 05:38:43;;;;;;;17.63;6.03;;;6.80;96.70;;;;;;5062629;28;20554;-63
2022/01/29 05:41:08;;;;;;;18.27;6.63;;;6.80;96.80;;;;;;5050553;28;20040;-62
2022/01/29 05:43:34;;;;;;;18.92;7.15;;;6.80;96.80;;;;;;5050919;28;20017;-62
2022/01/29 05:45:59;;;;;;;19.33;5.78;;;6.80;96.90;;;;;;5062285;28;20062;-63
2022/01/29 05:48:25;;;;;;;17.25;7.10;;;6.80;96.90;;;;;;5070734;28;20023;-62
2022/01/29 05:50:50;;;;;;;15.32;5.80;;;6.80;96.90;;;;;;5059497;28;20029;-63
2022/01/29 05:53:16;;;;;;;16.83;6.70;;;6.80;97.00;;;;;;5050886;28;20781;-63
2022/01/29 05:55:41;;;;;;;13.18;6.38;;;6.80;97.00;;;;;;5049764;28;20039;-62
2022/01/29 05:58:07;;;;;;;11.90;6.22;;;6.80;97.00;;;;;;5050796;28;20476;-62
2022/01/29 06:00:32;;;;;;;15.27;6.32;;;6.80;97.10;;;;;;5050449;28;20051;-64
2022/01/29 06:03:02;;;;;;;26.73;7.47;;;6.80;97.10;;;;;;5069055;28;20059;-63
2022/01/29 06:05:28;;;;;;;14.40;5.82;;;6.80;97.20;;;;;;5063579;28;20068;-62
2022/01/29 06:07:53;;;;;;;13.98;6.90;;;6.70;97.20;;;;;;5064397;28;20075;-61
2022/01/29 06:10:38;;;;;;;22.05;6.65;;;6.80;97.20;;;;;;5060693;28;20031;-62
2022/01/29 06:13:24;;;;;;;20.25;7.13;;;6.80;97.20;;;;;;5062947;28;20033;-63
2022/01/29 06:16:11;;;;;;;13.05;6.53;;;6.80;97.20;;;;;;5053091;28;20161;-62
2022/01/29 06:18:57;;;;;;;15.95;7.10;;;6.80;97.20;;;;;;5052442;28;20487;-62
2022/01/29 06:21:42;;;;;;;18.13;6.38;;;6.80;97.20;;;;;;5072642;28;20032;-63
2022/01/29 06:24:28;;;;;;;17.38;7.05;;;6.70;97.30;;;;;;5070565;28;20024;-62
2022/01/29 06:27:14;;;;;;;14.85;7.57;;;6.70;97.40;;;;;;5058130;28;20406;-62
2022/01/29 06:30:00;;;;;;;15.75;6.95;;;6.70;97.50;;;;;;5051805;28;20531;-62
2022/01/29 06:32:46;;;;;;;16.50;7.72;;;6.70;97.60;;;;;;5054189;28;20028;-62
2022/01/29 06:35:32;;;;;;;23.42;8.13;;;6.70;97.60;;;;;;5056923;28;20295;-62
2022/01/29 06:38:17;;;;;;;12.80;7.13;;;6.70;97.70;;;;;;5051345;28;20151;-62
2022/01/29 06:41:03;;;;;;;15.25;7.38;;;6.80;97.70;;;;;;5053210;28;20045;-62
2022/01/29 06:43:49;;;;;;;16.20;7.05;;;6.70;97.80;;;;;;5057902;28;20106;-62
2022/01/29 06:46:15;;;;;;;14.25;7.28;;;6.80;97.80;;;;;;5072277;28;20032;-62
2022/01/29 06:48:40;;;;;;;16.17;7.43;;;6.80;97.90;;;;;;5070654;28;20025;-62
2022/01/29 06:51:06;;;;;;;12.63;7.53;;;6.80;98.00;;;;;;5063820;28;20373;-63
2022/01/29 06:53:31;;;;;;;13.40;7.30;;;6.80;98.00;;;;;;5053233;28;20522;-63
2022/01/29 06:55:57;;;;;;;13.43;6.50;;;6.80;98.00;;;;;;5057452;28;20036;-62
2022/01/29 06:58:22;;;;;;;13.88;7.25;;;6.80;98.10;;;;;;5052796;28;20098;-64
2022/01/29 07:00:48;;;;;;;16.52;8.45;;;6.80;98.20;;;;;;5062560;28;20135;-64
2022/01/29 07:03:13;;;;;;;15.13;7.97;;;6.80;98.20;;;;;;5047190;28;20024;-63
2022/01/29 07:05:39;;;;;;;15.15;7.63;;;6.80;98.20;;;;;;5064111;28;20439;-63
2022/01/29 07:08:04;;;;;;;17.88;8.57;;;6.80;98.20;;;;;;5065838;28;20029;-62
2022/01/29 07:10:30;;;;;;;14.80;7.88;;;6.80;98.30;;;;;;5069890;28;20095;-64
2022/01/29 07:12:56;;;;;;;17.50;7.75;;;6.80;98.30;;;;;;5070898;28;20055;-63
2022/01/29 07:15:22;;;;;;;15.25;7.82;;;6.80;98.40;;;;;;5070485;28;20460;-63
2022/01/29 07:17:47;;;;;;;16.60;8.07;;;6.80;98.40;;;;;;5062443;28;20025;-63
2022/01/29 07:20:13;;;;;;;15.20;7.10;;;6.80;98.50;;;;;;5067120;28;20032;-62
2022/01/29 07:22:39;;;;;;;12.55;7.35;;;6.90;98.50;;;;;;5059079;28;20059;-62
2022/01/29 07:25:06;;;;;;;22.88;8.07;;;6.90;98.60;;;;;;5059979;28;20485;-62
2022/01/29 07:27:31;;;;;;;14.27;7.63;;;6.90;98.60;;;;;;5066527;28;20025;-63
2022/01/29 07:29:57;;;;;;;14.85;7.53;;;6.90;98.50;;;;;;5070489;28;20024;-64
2022/01/29 07:32:22;;;;;;;13.55;7.80;;;6.90;98.60;;;;;;5052617;28;20035;-63
2022/01/29 07:34:48;;;;;;;14.25;7.82;;;6.90;98.60;;;;;;5034549;28;20411;-63
2022/01/29 07:37:13;;;;;;;13.25;7.88;;;6.90;98.70;;;;;;5068862;28;20032;-64
2022/01/29 07:39:39;;;;;;;15.88;8.10;;;6.90;98.70;;;;;;5053255;28;20415;-63
2022/01/29 07:42:04;;;;;;;15.20;7.22;;;6.90;98.80;;;;;;5068109;28;20028;-63
2022/01/29 07:44:30;;;;;;;17.38;8.48;;;6.90;98.80;;;;;;5057580;28;20021;-64
2022/01/29 07:46:55;;;;;;;10.90;7.38;;;7.00;98.80;;;;;;5052524;28;20021;-63
2022/01/29 07:49:21;;;;;;;10.13;6.78;;;7.00;98.80;;;;;;5066844;28;20033;-62
2022/01/29 07:51:46;;;;;;;12.18;7.90;;;7.00;98.90;;;;;;5048470;28;20078;-63
2022/01/29 07:54:12;;;;;;;19.08;8.80;;;7.00;98.90;;;;;;5069346;28;20035;-63
2022/01/29 07:56:38;;;;;;;19.10;8.38;;;7.00;98.90;;;;;;5068615;28;20403;-63
2022/01/29 07:59:03;;;;;;;14.95;7.32;;;6.90;99.00;;;;;;5070609;28;20031;-64
2022/01/29 08:01:29;;;;;;;14.82;7.70;;;7.00;99.00;;;;;;5061214;28;20075;-64
2022/01/29 08:03:55;;;;;;;11.88;6.95;;;7.00;99.10;;;;;;5059430;28;20130;-63
2022/01/29 08:06:22;;;;;;;13.50;8.05;;;7.00;99.10;;;;;;5064244;28;20500;-63
2022/01/29 08:08:48;;;;;;;14.75;8.10;;;7.00;99.10;;;;;;5070611;28;20059;-63
2022/01/29 08:11:13;;;;;;;13.43;7.68;;;7.00;99.10;;;;;;5064612;28;20068;-63
2022/01/29 08:13:39;;;;;;;16.52;9.57;;;7.10;99.20;;;;;;5052982;28;20104;-64
2022/01/29 08:16:05;;;;;;;13.38;8.52;;;7.00;99.20;;;;;;5052163;28;20028;-63
2022/01/29 08:18:31;;;;;;;15.00;8.25;;;7.10;99.30;;;;;;5070063;28;20029;-63
2022/01/29 08:20:57;;;;;;;17.70;8.55;;;7.10;99.20;;;;;;5059728;28;20222;-64
2022/01/29 08:23:23;;;;;;;15.02;8.18;;;7.10;99.20;;;;;;5050944;28;20056;-64
2022/01/29 08:25:48;;;;;;;14.95;8.57;;;7.10;99.20;;;;;;5054625;28;20037;-63
2022/01/29 08:28:14;;;;;;;12.15;8.30;;;7.10;99.30;;;;;;5069969;28;20060;-63
2022/01/29 08:30:40;;;;;;;12.93;7.80;;;7.20;99.40;;;;;;5067747;28;20055;-63
2022/01/29 08:33:08;;;;;;;18.13;8.95;;;7.20;99.40;;;;;;5057844;28;20100;-63
2022/01/29 08:35:34;;;;;;;13.93;8.98;;;7.20;99.50;;;;;;5050031;28;20025;-63
2022/01/29 08:38:00;;;;;;;14.52;8.15;;;7.20;99.50;;;;;;5066039;28;20349;-63
2022/01/29 08:40:25;;;;;;;19.40;9.25;;;7.30;99.50;;;;;;5068410;28;20099;-63
2022/01/29 08:42:52;;;;;;;13.35;8.35;;;7.30;99.50;;;;;;5050849;28;20036;-63
2022/01/29 08:45:17;;;;;;;13.90;7.82;;;7.30;99.50;;;;;;5063118;28;20021;-64
2022/01/29 08:47:43;;;;;;;14.23;8.02;;;7.30;99.60;;;;;;5050819;28;20029;-64
2022/01/29 08:50:10;;;;;;;14.30;7.80;;;7.30;99.60;;;;;;5060442;28;20108;-64
2022/01/29 08:52:37;;;;;;;13.93;8.13;;;7.30;99.60;;;;;;5057281;28;20028;-63
2022/01/29 08:55:04;;;;;;;14.50;7.55;;;7.30;99.70;;;;;;5056955;28;20043;-64
2022/01/29 08:57:30;;;;;;;14.32;7.93;;;7.30;99.70;;;;;;5057986;28;20036;-63
2022/01/29 08:59:56;;;;;;;13.10;8.48;;;7.30;99.70;;;;;;5067666;28;20182;-64
2022/01/29 09:02:22;;;;;;;14.35;8.65;;;7.40;99.80;;;;;;5063490;28;20041;-64
2022/01/29 09:04:47;;;;;;;15.05;8.57;;;7.40;99.80;;;;;;5060617;28;20028;-64
2022/01/29 09:07:13;;;;;;;11.43;7.72;;;7.40;99.90;;;;;;5067397;28;20111;-64
2022/01/29 09:09:43;;;;;;;13.60;8.43;;;7.40;99.90;;;;;;5063844;28;20028;-64
2022/01/29 09:12:09;;;;;;;11.75;8.10;;;7.40;99.90;;;;;;5072330;28;20031;-64
2022/01/29 09:14:35;;;;;;;12.85;7.97;;;7.40;99.90;;;;;;5069217;28;20188;-64
2022/01/29 09:17:00;;;;;;;15.02;7.85;;;7.50;99.90;;;;;;5062527;28;20099;-64
2022/01/29 09:19:26;;;;;;;15.40;7.93;;;7.50;99.90;;;;;;5069589;28;20082;-64
2022/01/29 09:21:51;;;;;;;13.30;7.47;;;7.50;99.90;;;;;;5050778;28;20112;-64
2022/01/29 09:24:17;;;;;;;13.25;7.88;;;7.50;99.90;;;;;;5069432;28;20039;-64
2022/01/29 09:26:42;;;;;;;13.35;8.10;;;7.50;99.90;;;;;;5068231;28;20078;-63
2022/01/29 09:29:08;;;;;;;16.52;8.65;;;7.60;99.90;;;;;;5057064;28;20524;-64
2022/01/29 09:31:33;;;;;;;13.57;8.25;;;7.60;99.90;;;;;;5055759;28;20040;-64
2022/01/29 09:33:59;;;;;;;14.07;7.40;;;7.60;99.90;;;;;;5067911;28;20123;-64
2022/01/29 09:36:24;;;;;;;11.80;7.65;;;7.60;99.90;;;;;;5064038;28;20175;-64
2022/01/29 09:38:50;;;;;;;14.25;8.60;;;7.70;99.90;;;;;;5070846;28;20024;-64
2022/01/29 09:41:18;;;;;;;12.82;7.05;;;7.70;99.90;;;;;;5070978;28;20476;-63
2022/01/29 09:43:45;;;;;;;11.27;7.40;;;7.70;99.90;;;;;;5044655;28;20028;-63
2022/01/29 09:46:11;;;;;;;15.65;7.95;;;7.70;99.90;;;;;;5073082;28;20078;-63
2022/01/29 09:48:36;;;;;;;13.07;8.43;;;7.70;99.90;;;;;;5055004;28;20029;-64
2022/01/29 09:51:04;;;;;;;15.35;8.50;;;7.80;99.90;;;;;;5054698;28;20047;-64
2022/01/29 09:53:30;;;;;;;14.68;8.32;;;7.80;99.90;;;;;;5074273;28;20421;-64
2022/01/29 09:55:55;;;;;;;18.77;8.77;;;7.80;99.90;;;;;;5072012;28;20050;-64
2022/01/29 09:58:21;;;;;;;13.05;8.15;;;7.80;99.90;;;;;;5072658;28;20028;-64
2022/01/29 10:00:46;;;;;;;17.58;9.60;;;7.90;99.90;;;;;;5071920;28;20553;-64
2022/01/29 10:03:14;;;;;;;19.42;9.98;;;7.80;99.90;;;;;;5073862;28;20051;-64
2022/01/29 10:05:41;;;;;;;15.10;9.25;;;7.90;99.90;;;;;;5070653;28;20094;-64
2022/01/29 10:08:08;;;;;;;16.42;9.10;;;7.90;99.90;;;;;;5073946;28;20024;-64
2022/01/29 10:10:46;;;;;;;16.25;10.38;;;8.00;99.90;;;;;;5065476;28;20060;-64
2022/01/29 10:13:25;;;;;;;15.95;9.10;;;8.00;99.90;;;;;;5053590;28;20117;-64
2022/01/29 10:16:02;;;;;;;17.33;10.95;;;8.00;99.90;;;;;;5055199;28;20036;-63
2022/01/29 10:18:27;;;;;;;17.13;9.45;;;8.00;99.90;;;;;;5053540;28;20098;-64
2022/01/29 10:21:07;;;;;;;16.98;9.98;;;8.00;99.90;;;;;;5063918;28;20029;-64
2022/01/29 10:23:32;;;;;;;16.75;10.55;;;8.10;99.90;;;;;;5073998;28;20482;-63
2022/01/29 10:25:58;;;;;;;19.67;10.93;;;8.10;99.90;;;;;;5057812;28;20056;-63
2022/01/29 10:28:23;;;;;;;16.98;10.70;;;8.10;99.90;;;;;;5067458;28;20043;-64
2022/01/29 10:30:49;;;;;;;19.65;11.25;;;8.10;99.90;;;;;;5071858;28;20450;-64
2022/01/29 10:33:18;;;;;;;18.73;11.43;;;8.20;99.90;;;;;;5072933;28;20016;-64
2022/01/29 10:35:45;;;;;;;19.77;11.52;;;8.20;99.90;;;;;;5067634;28;21475;-63
2022/01/29 10:38:10;;;;;;;20.00;11.00;;;8.20;99.90;;;;;;5067397;28;20020;-63
2022/01/29 10:40:38;;;;;;;16.90;10.43;;;8.30;99.90;;;;;;5060094;28;20032;-64
2022/01/29 10:43:07;;;;;;;17.17;10.85;;;8.30;99.90;;;;;;5063941;28;20099;-63
2022/01/29 10:45:34;;;;;;;20.33;10.95;;;8.30;99.90;;;;;;5077626;28;20082;-63
2022/01/29 10:48:01;;;;;;;19.33;11.27;;;8.30;99.90;;;;;;5064564;28;20054;-63
2022/01/29 10:50:27;;;;;;;17.13;11.05;;;8.40;99.90;;;;;;5065262;28;20079;-63
2022/01/29 10:52:53;;;;;;;15.45;10.48;;;8.40;99.90;;;;;;5063523;28;20032;-63
2022/01/29 10:55:18;;;;;;;17.98;11.27;;;8.50;99.90;;;;;;5055794;28;20376;-63
2022/01/29 10:57:46;;;;;;;18.08;10.93;;;8.50;99.90;;;;;;5053097;28;20071;-63
2022/01/29 11:00:30;;;;;;;15.40;10.60;;;8.60;99.90;;;;;;5067389;28;20094;-63
2022/01/29 11:02:57;;;;;;;15.63;10.23;;;8.60;99.90;;;;;;5059848;28;20029;-63
2022/01/29 11:05:26;;;;;;;16.33;9.30;;;8.70;99.90;;;;;;5068074;28;20039;-63
2022/01/29 11:07:54;;;;;;;17.20;10.18;;;8.60;99.90;;;;;;5070512;28;20032;-63
2022/01/29 11:10:20;;;;;;;18.63;11.43;;;8.70;99.90;;;;;;5053850;28;20557;-63
2022/01/29 11:12:48;;;;;;;16.17;9.57;;;8.70;99.90;;;;;;5072908;28;20024;-63
2022/01/29 11:15:19;;;;;;;15.20;9.80;;;8.70;99.90;;;;;;5016452;28;20053;-64
2022/01/29 11:17:45;;;;;;;12.93;9.13;;;8.80;99.90;;;;;;5037527;28;20071;-64
2022/01/29 11:20:12;;;;;;;15.45;9.75;;;8.80;99.90;;;;;;5051029;28;20509;-63
2022/01/29 11:22:41;;;;;;;15.30;9.18;;;8.80;99.90;;;;;;5045706;28;20128;-64
2022/01/29 11:25:12;;;;;;;14.60;8.85;;;8.80;99.90;;;;;;5048186;28;20431;-64
2022/01/29 11:27:38;;;;;;;16.20;9.02;;;8.90;99.90;;;;;;5049382;28;20036;-64
2022/01/29 11:30:10;;;;;;;13.68;8.75;;;8.90;99.90;;;;;;5044057;28;20013;-64
2022/01/29 11:32:43;;;;;;;11.32;8.00;;;8.90;99.90;;;;;;5039733;28;20456;-64
2022/01/29 11:35:22;;;;;;;11.65;8.15;;;9.00;99.90;;;;;;5045182;28;20046;-64
2022/01/29 11:37:50;;;;;;;14.48;8.77;;;9.00;99.90;;;;;;5032512;28;20099;-64
2022/01/29 11:40:23;;;;;;;13.15;8.63;;;9.10;99.90;;;;;;5046661;28;20032;-63
2022/01/29 11:43:13;;;;;;;12.45;8.50;;;9.10;99.90;;;;;;5051257;28;20037;-64
2022/01/29 11:46:12;;;;;;;12.75;8.70;;;9.10;99.90;;;;;;5047537;28;20068;-63
2022/01/29 11:48:52;;;;;;;12.48;8.30;;;9.20;99.90;;;;;;5036117;28;20071;-63
2022/01/29 11:51:42;;;;;;;14.02;7.60;;;9.20;99.90;;;;;;5039853;28;20082;-63
2022/01/29 11:54:09;;;;;;;13.65;8.10;;;9.20;99.90;;;;;;5050928;28;20032;-64
2022/01/29 11:56:37;;;;;;;12.65;7.82;;;9.20;99.90;;;;;;5031946;28;20037;-64
2022/01/29 11:59:17;;;;;;;13.85;7.93;;;9.20;99.90;;;;;;5057993;28;20025;-64
2022/01/29 12:01:44;;;;;;;12.02;8.13;;;9.20;99.90;;;;;;5043572;28;20040;-63
2022/01/29 12:04:10;;;;;;;11.25;7.10;;;9.30;99.90;;;;;;5042382;28;20280;-63
2022/01/29 12:06:41;;;;;;;14.25;7.65;;;9.30;99.90;;;;;;5031391;28;20088;-63
2022/01/29 12:09:28;;;;;;;14.18;8.52;;;9.30;99.90;;;;;;5051358;28;20049;-64
2022/01/29 12:12:20;;;;;;;15.05;7.28;;;9.40;99.90;;;;;;5047825;28;20167;-63
2022/01/29 12:14:48;;;;;;;13.20;6.90;;;9.40;99.90;;;;;;5038964;28;20033;-63
2022/01/29 12:17:45;;;;;;;11.13;7.00;;;9.40;99.90;;;;;;5040659;28;20052;-63
2022/01/29 12:20:14;;;;;;;10.23;6.65;;;9.50;99.90;;;;;;5036729;28;20067;-64
2022/01/29 12:22:41;;;;;;;17.02;10.20;;;9.50;99.90;;;;;;5040800;28;20045;-63
2022/01/29 12:25:12;;;;;;;18.52;12.38;;;9.50;99.90;;;;;;5039783;28;20212;-64
2022/01/29 12:27:59;;;;;;;10.25;7.10;;;9.50;99.90;;;;;;5037609;28;20029;-64
2022/01/29 12:30:30;;;;;;;10.63;6.88;;;9.50;99.90;;;;;;5037667;28;20052;-64
2022/01/29 12:33:08;;;;;;;11.30;6.85;;;9.50;99.90;;;;;;5037332;28;20025;-64
2022/01/29 12:35:35;;;;;;;11.05;7.35;;;9.60;99.90;;;;;;5037968;28;20041;-64
2022/01/29 12:38:02;;;;;;;12.90;6.90;;;9.60;99.90;;;;;;5040086;28;20044;-64
2022/01/29 12:40:27;;;;;;;10.35;6.75;;;9.60;99.90;;;;;;5040063;28;20128;-63
2022/01/29 12:42:58;;;;;;;13.07;8.25;;;9.60;99.90;;;;;;5040349;28;20116;-64
2022/01/29 12:45:26;;;;;;;9.23;6.22;;;9.60;99.90;;;;;;5034086;28;20033;-64
2022/01/29 12:48:09;;;;;;;10.10;6.88;;;9.70;99.90;;;;;;5018674;28;20112;-64
2022/01/29 12:50:36;;;;;;;9.98;6.18;;;9.70;99.90;;;;;;5037357;28;20118;-64
2022/01/29 12:53:14;;;;;;;10.30;6.47;;;9.70;99.90;;;;;;5040205;28;20025;-64
2022/01/29 12:55:40;;;;;;;10.02;6.55;;;9.70;99.90;;;;;;5023683;28;20041;-64
2022/01/29 12:58:06;;;;;;;8.18;5.93;;;9.70;99.90;;;;;;5036732;28;20156;-64
2022/01/29 13:00:33;;;;;;;8.82;5.55;;;9.80;99.90;;;;;;5037910;28;20396;-64
2022/01/29 13:03:09;;;;;;;9.27;5.70;;;9.80;99.90;;;;;;5036873;28;20029;-64
2022/01/29 13:05:44;;;;;;;8.35;5.82;;;9.80;99.90;;;;;;5031229;28;20033;-64